Time;durP1;ratioP1;P1;durP2;ratioP2;P2;SDS_P1;SDS_P2;PMS_P1;PMS_P2;Temp;Humidity;BMP_temperature;BMP_pressure;BME280_temperature;BME280_humidity;BME280_pressure;Samples;Min_cycle;Max_cycle;Signal;HPM_P1;HPM_P2
2022/06/01 00:00:33;;;;;;;2.75;1.10;;;10.50;99.90;;;-146.41;100.00;57768.22;5007007;28;20050;-72
2022/06/01 00:03:00;;;;;;;2.53;1.00;;;10.40;99.90;;;-146.41;100.00;57768.22;4992853;28;20092;-70
2022/06/01 00:05:27;;;;;;;2.28;0.95;;;10.40;99.90;;;-146.41;100.00;57768.22;5005467;28;20556;-71
2022/06/01 00:07:55;;;;;;;3.20;1.20;;;10.30;99.90;;;-146.41;100.00;57768.22;5009069;28;20045;-71
2022/06/01 00:10:22;;;;;;;3.17;1.15;;;10.30;99.90;;;-146.41;100.00;57768.22;5004332;28;20085;-69
2022/06/01 00:12:49;;;;;;;4.10;1.17;;;10.20;99.90;;;-146.41;100.00;57768.22;5007082;28;20074;-70
2022/06/01 00:15:18;;;;;;;3.40;0.95;;;10.30;99.90;;;-146.41;100.00;57768.22;5003428;28;20119;-73
2022/06/01 00:17:45;;;;;;;2.22;1.08;;;10.30;99.90;;;-146.41;100.00;57768.22;5004999;28;20133;-69
2022/06/01 00:20:14;;;;;;;2.17;1.00;;;10.30;99.90;;;-146.41;100.00;57768.22;5003092;28;20614;-74
2022/06/01 00:22:42;;;;;;;2.58;1.10;;;10.30;99.90;;;-146.41;100.00;57768.22;5004897;28;20471;-69
2022/06/01 00:25:10;;;;;;;2.92;1.30;;;10.30;99.90;;;-146.41;100.00;57768.22;5008228;28;20357;-69
2022/06/01 00:27:37;;;;;;;3.50;1.38;;;10.30;99.90;;;-146.41;100.00;57768.22;5006576;28;20054;-69
2022/06/01 00:30:09;;;;;;;4.15;1.38;;;10.20;99.90;;;-146.41;100.00;57768.22;5005400;28;20046;-69
2022/06/01 00:32:37;;;;;;;3.28;1.58;;;10.20;99.90;;;-146.41;100.00;57768.22;4985281;28;20049;-69
2022/06/01 00:35:06;;;;;;;2.97;1.40;;;10.10;99.90;;;-146.41;100.00;57768.22;5006497;28;20488;-72
2022/06/01 00:37:33;;;;;;;3.03;1.40;;;10.00;99.90;;;-146.41;100.00;57768.22;5005219;28;20159;-72
2022/06/01 00:40:02;;;;;;;3.58;1.60;;;9.90;99.90;;;-146.41;100.00;57768.22;5007456;28;20050;-73
2022/06/01 00:42:32;;;;;;;3.40;1.40;;;9.80;99.90;;;-146.41;100.00;57768.22;5005444;28;20132;-73
2022/06/01 00:45:00;;;;;;;4.90;2.00;;;9.60;99.90;;;-146.41;100.00;57768.22;5004587;28;20141;-71
2022/06/01 00:47:28;;;;;;;3.63;1.55;;;9.50;99.90;;;-146.41;100.00;57768.22;5005575;28;20085;-71
2022/06/01 00:50:26;;;;;;;5.63;1.45;;;9.50;99.90;;;-146.41;100.00;57768.22;5010044;28;20137;-72
2022/06/01 00:53:05;;;;;;;4.93;1.70;;;9.40;99.90;;;-146.41;100.00;57768.22;5005079;28;20548;-70
2022/06/01 00:55:40;;;;;;;4.07;1.50;;;9.40;99.90;;;-146.41;100.00;57768.22;5005104;28;20074;-71
2022/06/01 00:58:23;;;;;;;3.22;1.42;;;9.40;99.90;;;-146.41;100.00;57768.22;5004837;28;20056;-70
2022/06/01 01:00:53;;;;;;;6.37;1.90;;;9.30;99.90;;;-146.41;100.00;57768.22;5003937;28;20140;-72
2022/06/01 01:03:23;;;;;;;3.05;1.40;;;9.30;99.90;;;-146.41;100.00;57768.22;4987370;28;20202;-72
2022/06/01 01:06:19;;;;;;;5.32;1.80;;;9.40;99.90;;;-146.41;100.00;57768.22;5004766;28;20121;-71
2022/06/01 01:08:49;;;;;;;4.35;1.95;;;9.40;99.90;;;-146.41;100.00;57768.22;4991957;28;20133;-71
2022/06/01 01:11:30;;;;;;;4.45;2.00;;;9.40;99.90;;;-146.41;100.00;57768.22;5000768;28;20049;-70
2022/06/01 01:13:58;;;;;;;3.08;1.60;;;9.50;99.90;;;-146.41;100.00;57768.22;4984155;28;20042;-70
2022/06/01 01:16:27;;;;;;;3.20;1.75;;;9.50;99.90;;;-146.41;100.00;57768.22;4988048;28;20140;-74
2022/06/01 01:18:56;;;;;;;3.30;1.60;;;9.60;99.90;;;-146.41;100.00;57768.22;4986086;28;20041;-72
2022/06/01 01:22:11;;;;;;;2.92;1.73;;;9.60;99.90;;;-146.41;100.00;57768.22;4989872;28;20129;-71
2022/06/01 01:24:45;;;;;;;4.05;1.52;;;9.70;99.90;;;-146.41;100.00;57768.22;4986471;28;20204;-72
2022/06/01 01:27:12;;;;;;;5.75;2.00;;;9.70;99.90;;;-146.41;100.00;57768.22;5001997;28;20140;-70
2022/06/01 01:29:43;;;;;;;3.53;1.65;;;9.80;99.90;;;-146.41;100.00;57768.22;4999743;28;20132;-73
2022/06/01 01:32:13;;;;;;;2.80;1.50;;;9.90;99.90;;;-146.41;100.00;57768.22;5001579;28;20050;-70
2022/06/01 01:34:44;;;;;;;2.33;1.20;;;9.90;99.90;;;-146.41;100.00;57768.22;5007420;28;20454;-70
2022/06/01 01:37:19;;;;;;;3.83;1.48;;;10.00;99.90;;;-146.41;100.00;57768.22;5003806;28;20073;-70
2022/06/01 01:39:46;;;;;;;2.70;1.30;;;10.00;99.90;;;-146.41;100.00;57768.22;5004723;28;20145;-71
2022/06/01 01:42:13;;;;;;;4.20;1.50;;;10.10;99.90;;;-146.41;100.00;57768.22;5005209;28;20081;-71
2022/06/01 01:45:01;;;;;;;3.72;1.85;;;10.20;99.90;;;-146.41;100.00;57768.22;5008817;28;20074;-72
2022/06/01 01:47:28;;;;;;;2.97;1.45;;;10.20;99.90;;;-146.41;100.00;57768.22;4985664;28;20058;-71
2022/06/01 01:49:55;;;;;;;3.67;1.60;;;10.20;99.90;;;-146.41;100.00;57768.22;5007657;28;20064;-72
2022/06/01 01:52:22;;;;;;;2.83;1.48;;;10.20;99.90;;;-146.41;100.00;57768.22;4999188;28;20114;-72
2022/06/01 01:55:02;;;;;;;3.95;1.95;;;10.20;99.90;;;-146.41;100.00;57768.22;5005919;28;20485;-73
2022/06/01 01:58:03;;;;;;;3.33;1.50;;;10.20;99.90;;;-146.41;100.00;57768.22;4977450;28;20451;-70
2022/06/01 02:00:34;;;;;;;4.53;1.38;;;10.10;99.90;;;-146.41;100.00;57768.22;5007094;28;20129;-70
2022/06/01 02:03:13;;;;;;;4.43;1.33;;;10.20;99.90;;;-146.41;100.00;57768.22;4986861;28;20136;-70
2022/06/01 02:06:21;;;;;;;3.30;1.20;;;10.30;99.90;;;-146.41;100.00;57768.22;4991641;28;20661;-73
2022/06/01 02:09:00;;;;;;;2.85;1.30;;;10.40;99.90;;;-146.41;100.00;57768.22;4988053;28;20054;-70
2022/06/01 02:14:53;;;;;;;;;;;10.60;99.90;;;-146.41;100.00;57768.22;5002973;28;20073;-75
2022/06/01 02:17:38;;;;;;;4.88;1.63;;;10.60;99.90;;;-146.41;100.00;57768.22;4999551;28;19944;-73
2022/06/01 02:20:18;;;;;;;3.95;1.50;;;10.60;99.90;;;-146.41;100.00;57768.22;5012221;28;20049;-71
2022/06/01 02:22:45;;;;;;;4.40;1.10;;;10.70;99.90;;;-146.41;100.00;57768.22;5004829;28;20081;-71
2022/06/01 02:25:13;;;;;;;3.72;1.27;;;10.80;99.90;;;-146.41;100.00;57768.22;5004587;28;20054;-70
2022/06/01 02:27:42;;;;;;;4.07;1.50;;;11.00;99.90;;;-146.41;100.00;57768.22;5006709;28;20971;-71
2022/06/01 02:30:18;;;;;;;1.92;1.00;;;11.00;99.90;;;-146.41;100.00;57768.22;5001787;28;20050;-71
2022/06/01 02:32:47;;;;;;;2.90;0.95;;;11.00;99.90;;;-146.41;100.00;57768.22;4987080;28;20425;-70
2022/06/01 02:35:19;;;;;;;3.30;1.10;;;11.00;99.90;;;-146.41;100.00;57768.22;4989260;28;20595;-71
2022/06/01 02:37:51;;;;;;;5.50;1.27;;;11.00;99.90;;;-146.41;100.00;57768.22;4983206;28;20048;-72
2022/06/01 02:40:24;;;;;;;2.40;1.30;;;11.10;99.90;;;-146.41;100.00;57768.22;4983180;28;20135;-72
2022/06/01 02:42:52;;;;;;;4.15;1.58;;;11.10;99.90;;;-146.41;100.00;57768.22;5001798;28;20057;-71
2022/06/01 02:45:26;;;;;;;3.00;1.10;;;11.00;99.90;;;-146.41;100.00;57768.22;5005547;28;20129;-71
2022/06/01 02:47:57;;;;;;;2.15;1.00;;;10.90;99.90;;;-146.41;100.00;57768.22;5006154;28;20956;-72
2022/06/01 02:50:31;;;;;;;2.15;1.00;;;10.90;99.90;;;-146.41;100.00;57768.22;5005606;28;20077;-70
2022/06/01 02:52:58;;;;;;;1.88;1.00;;;10.80;99.90;;;-146.41;100.00;57768.22;5000434;28;20371;-73
2022/06/01 02:55:29;;;;;;;2.67;1.02;;;10.90;99.90;;;-146.41;100.00;57768.22;5012011;28;20578;-71
2022/06/01 02:57:56;;;;;;;2.78;1.00;;;10.90;99.90;;;-146.41;100.00;57768.22;4990885;28;20046;-74
2022/06/01 03:00:40;;;;;;;3.80;1.10;;;10.90;99.90;;;-146.41;100.00;57768.22;5002056;28;20507;-71
2022/06/01 03:03:10;;;;;;;3.05;1.00;;;10.80;99.90;;;-146.41;100.00;57768.22;5005715;28;20060;-72
2022/06/01 03:05:40;;;;;;;3.30;1.15;;;10.70;99.90;;;-146.41;100.00;57768.22;5007595;28;20115;-70
2022/06/01 03:08:08;;;;;;;2.88;1.23;;;10.70;99.90;;;-146.41;100.00;57768.22;5003239;28;20141;-69
2022/06/01 03:10:35;;;;;;;2.67;1.13;;;10.70;99.90;;;-146.41;100.00;57768.22;5004404;28;20053;-72
2022/06/01 03:13:17;;;;;;;3.50;0.98;;;10.70;99.90;;;-146.41;100.00;57768.22;5002660;28;20042;-69
2022/06/01 03:15:44;;;;;;;3.30;1.30;;;10.50;99.90;;;-146.41;100.00;57768.22;5001837;28;20096;-69
2022/06/01 03:18:11;;;;;;;3.45;1.10;;;10.40;99.90;;;-146.41;100.00;57768.22;4990160;28;20437;-69
2022/06/01 03:20:38;;;;;;;3.92;1.60;;;10.30;99.90;;;-146.41;100.00;57768.22;5005171;28;20133;-71
2022/06/01 03:23:06;;;;;;;2.50;1.45;;;10.20;99.90;;;-146.41;100.00;57768.22;5005004;28;20123;-74
2022/06/01 03:25:33;;;;;;;2.20;1.40;;;10.10;99.90;;;-146.41;100.00;57768.22;5006361;28;20045;-70
2022/06/01 03:28:00;;;;;;;4.10;1.50;;;10.10;99.90;;;-146.41;100.00;57768.22;5001347;28;20459;-74
2022/06/01 03:30:28;;;;;;;2.92;1.25;;;10.10;99.90;;;-146.41;100.00;57768.22;5006622;28;20053;-70
2022/06/01 03:32:57;;;;;;;3.45;1.40;;;10.10;99.90;;;-146.41;100.00;57768.22;5003659;28;20093;-71
2022/06/01 03:35:31;;;;;;;4.60;1.30;;;10.00;99.90;;;-146.41;100.00;57768.22;5010875;28;20038;-69
2022/06/01 03:37:59;;;;;;;4.43;1.50;;;10.00;99.90;;;-146.41;100.00;57768.22;4993054;28;20216;-71
2022/06/01 03:40:29;;;;;;;4.60;1.33;;;9.90;99.90;;;-146.41;100.00;57768.22;5009406;28;20054;-70
2022/06/01 03:42:58;;;;;;;2.78;1.20;;;9.80;99.90;;;-146.41;100.00;57768.22;5008017;28;20063;-71
2022/06/01 03:48:14;;;;;;;2.28;1.50;;;9.70;99.90;;;-146.41;100.00;57768.22;5009982;28;20468;-71
2022/06/01 03:50:42;;;;;;;5.15;1.88;;;9.70;99.90;;;-146.41;100.00;57768.22;5005991;28;20144;-72
2022/06/01 03:53:09;;;;;;;2.10;1.10;;;9.60;99.90;;;-146.41;100.00;57768.22;4986339;28;20845;-72
2022/06/01 03:55:36;;;;;;;3.75;1.10;;;9.60;99.90;;;-146.41;100.00;57768.22;5008162;28;20834;-71
2022/06/01 03:58:04;;;;;;;2.67;1.42;;;9.60;99.90;;;-146.41;100.00;57768.22;5005907;28;20129;-72
2022/06/01 04:00:32;;;;;;;2.88;1.95;;;9.60;99.90;;;-146.41;100.00;57768.22;5012930;28;20132;-74
2022/06/01 04:02:59;;;;;;;4.65;2.38;;;9.60;99.90;;;-146.41;100.00;57768.22;5007277;28;20073;-70
2022/06/01 04:05:27;;;;;;;4.75;2.40;;;9.60;99.90;;;-146.41;100.00;57768.22;5004039;28;20149;-71
2022/06/01 04:07:54;;;;;;;4.80;2.40;;;9.60;99.90;;;-146.41;100.00;57768.22;5010443;28;20057;-70
2022/06/01 04:10:22;;;;;;;4.93;2.00;;;9.60;99.90;;;-146.41;100.00;57768.22;5007848;28;20129;-72
2022/06/01 04:12:54;;;;;;;7.05;1.73;;;9.60;99.90;;;-146.41;100.00;57768.22;5011448;28;20103;-70
2022/06/01 04:15:21;;;;;;;4.45;1.85;;;9.60;99.90;;;-146.41;100.00;57768.22;5011204;28;20128;-74
2022/06/01 04:17:48;;;;;;;3.67;2.33;;;9.70;99.90;;;-146.41;100.00;57768.22;5008462;28;20228;-73
2022/06/01 04:20:15;;;;;;;3.08;1.90;;;9.80;99.90;;;-146.41;100.00;57768.22;5010270;28;20180;-71
2022/06/01 04:22:43;;;;;;;3.63;1.83;;;9.80;99.90;;;-146.41;100.00;57768.22;5011268;28;20488;-69
2022/06/01 04:25:15;;;;;;;2.83;1.50;;;9.80;99.90;;;-146.41;100.00;57768.22;5004234;28;20085;-70
2022/06/01 04:27:43;;;;;;;3.40;1.55;;;9.90;99.90;;;-146.41;100.00;57768.22;4989586;28;20160;-70
2022/06/01 04:30:15;;;;;;;3.90;1.70;;;10.10;99.90;;;-146.41;100.00;57768.22;5006007;28;20045;-69
2022/06/01 04:32:45;;;;;;;3.05;1.63;;;10.20;99.90;;;-146.41;100.00;57768.22;5004555;28;20052;-69
2022/06/01 04:35:12;;;;;;;4.93;1.65;;;10.20;99.90;;;-146.41;100.00;57768.22;4990133;28;20169;-71
2022/06/01 04:37:39;;;;;;;3.22;1.30;;;10.30;99.90;;;-146.41;100.00;57768.22;5005232;28;20129;-73
2022/06/01 04:40:10;;;;;;;3.63;1.50;;;10.60;99.90;;;-146.41;100.00;57768.22;4988602;28;20141;-69
2022/06/01 04:42:39;;;;;;;2.85;1.60;;;10.60;99.90;;;-146.41;100.00;57768.22;5005534;28;20081;-71
2022/06/01 04:45:09;;;;;;;4.05;1.92;;;10.80;99.90;;;-146.41;100.00;57768.22;5005329;28;20222;-71
2022/06/01 04:47:37;;;;;;;2.42;1.30;;;10.90;99.90;;;-146.41;100.00;57768.22;5006597;28;20149;-73
2022/06/01 04:50:06;;;;;;;3.78;1.50;;;10.90;99.90;;;-146.41;100.00;57768.22;5013383;28;20145;-69
2022/06/01 04:52:37;;;;;;;3.45;1.80;;;11.00;99.90;;;-146.41;100.00;57768.22;4991034;28;20060;-70
2022/06/01 04:55:07;;;;;;;3.13;1.65;;;11.10;99.90;;;-146.41;100.00;57768.22;5006074;28;20476;-73
2022/06/01 04:57:36;;;;;;;3.88;1.50;;;11.20;99.90;;;-146.41;100.00;57768.22;5008288;28;20103;-71
2022/06/01 05:00:04;;;;;;;4.93;1.75;;;11.20;99.90;;;-146.41;100.00;57768.22;5004596;28;20165;-73
2022/06/01 05:02:32;;;;;;;2.67;1.70;;;11.30;99.90;;;-146.41;100.00;57768.22;5003869;28;20052;-69
2022/06/01 05:04:59;;;;;;;3.33;1.65;;;11.40;99.90;;;-146.41;100.00;57768.22;5009436;28;20100;-71
2022/06/01 05:07:26;;;;;;;4.32;1.55;;;11.60;99.90;;;-146.41;100.00;57768.22;5003578;28;20049;-70
2022/06/01 05:09:53;;;;;;;3.50;1.65;;;11.70;99.90;;;-146.41;100.00;57768.22;4992903;28;20148;-72
2022/06/01 05:12:20;;;;;;;3.15;1.55;;;11.90;99.90;;;-146.41;100.00;57768.22;4987706;28;20462;-74
2022/06/01 05:14:47;;;;;;;2.67;1.40;;;11.90;99.90;;;-146.41;100.00;57768.22;5016316;28;20049;-71
2022/06/01 05:17:14;;;;;;;2.55;1.23;;;12.00;99.90;;;-146.41;100.00;57768.22;4987891;28;20163;-70
2022/06/01 05:19:43;;;;;;;2.88;1.20;;;12.00;99.90;;;-146.41;100.00;57768.22;4987881;28;20469;-70
2022/06/01 05:22:10;;;;;;;2.40;1.38;;;12.20;99.90;;;-146.41;100.00;57768.22;5005189;28;20071;-70
2022/06/01 05:24:37;;;;;;;4.38;1.13;;;12.30;99.90;;;-146.41;100.00;57768.22;5009049;28;20153;-72
2022/06/01 05:27:04;;;;;;;3.03;1.65;;;12.50;99.90;;;-146.41;100.00;57768.22;5009996;28;20154;-72
2022/06/01 05:29:31;;;;;;;5.35;1.58;;;12.50;99.90;;;-146.41;100.00;57768.22;5007540;28;20053;-72
2022/06/01 05:31:58;;;;;;;3.53;2.05;;;12.60;99.90;;;-146.41;100.00;57768.22;5006115;28;20081;-70
2022/06/01 05:34:25;;;;;;;6.15;3.58;;;12.60;99.90;;;-146.41;100.00;57768.22;4989352;28;20081;-70
2022/06/01 05:36:51;;;;;;;5.70;3.08;;;12.60;99.90;;;-146.41;100.00;57768.22;5001409;28;20071;-72
2022/06/01 05:39:18;;;;;;;4.63;1.70;;;12.60;99.90;;;-146.41;100.00;57768.22;5008869;28;20066;-71
2022/06/01 05:41:46;;;;;;;5.82;1.77;;;12.50;99.90;;;-146.41;100.00;57768.22;5007373;28;20523;-72
2022/06/01 05:44:13;;;;;;;2.90;1.60;;;12.60;99.90;;;-146.41;100.00;57768.22;5015316;28;20050;-72
2022/06/01 05:46:43;;;;;;;2.95;1.40;;;12.60;99.90;;;-146.41;100.00;57768.22;5012533;28;20508;-70
2022/06/01 05:49:12;;;;;;;2.60;1.15;;;12.80;99.90;;;-146.41;100.00;57768.22;5014874;28;20086;-71
2022/06/01 05:51:39;;;;;;;3.33;1.42;;;13.00;99.90;;;-146.41;100.00;57768.22;5016454;28;20141;-72
2022/06/01 05:54:07;;;;;;;2.58;1.52;;;13.10;99.90;;;-146.41;100.00;57768.22;5012468;28;20128;-71
2022/06/01 05:56:34;;;;;;;9.93;1.67;;;13.30;99.90;;;-146.41;100.00;57768.22;5015581;28;20058;-72
2022/06/01 05:59:01;;;;;;;2.58;1.30;;;13.40;99.90;;;-146.41;100.00;57768.22;5013545;28;20594;-71
2022/06/01 06:01:28;;;;;;;2.80;1.38;;;13.60;99.90;;;-146.41;100.00;57768.22;5010924;28;20396;-72
2022/06/01 06:03:56;;;;;;;2.53;1.05;;;13.80;99.90;;;-146.41;100.00;57768.22;5010220;28;20077;-71
2022/06/01 06:06:24;;;;;;;3.17;1.10;;;13.90;99.90;;;-146.41;100.00;57768.22;4994554;28;20136;-70
2022/06/01 06:09:07;;;;;;;3.20;1.08;;;14.10;99.90;;;-146.41;100.00;57768.22;5009371;28;20061;-71
2022/06/01 06:11:38;;;;;;;2.70;1.13;;;14.30;99.90;;;-146.41;100.00;57768.22;5012398;28;20164;-71
2022/06/01 06:14:05;;;;;;;3.17;1.42;;;14.50;99.90;;;-146.41;100.00;57768.22;5012416;28;20053;-71
2022/06/01 06:16:42;;;;;;;2.42;1.10;;;14.70;99.90;;;-146.41;100.00;57768.22;4995342;28;20138;-73
2022/06/01 06:19:12;;;;;;;6.38;1.10;;;14.90;99.90;;;-146.41;100.00;57768.22;5014269;28;20057;-70
2022/06/01 06:21:39;;;;;;;2.45;0.82;;;15.10;99.90;;;-146.41;100.00;57768.22;5013945;28;20164;-72
2022/06/01 06:24:18;;;;;;;3.83;0.93;;;15.20;99.90;;;-146.41;100.00;57768.22;4996085;28;20544;-71
2022/06/01 06:26:46;;;;;;;2.58;0.80;;;15.30;99.90;;;-146.41;100.00;57768.22;5007144;28;20081;-72
2022/06/01 06:29:18;;;;;;;2.30;0.90;;;15.40;99.90;;;-146.41;100.00;57768.22;5016171;28;20216;-71
2022/06/01 06:31:45;;;;;;;3.28;0.90;;;15.50;99.90;;;-146.41;100.00;57768.22;5010098;28;20081;-71
2022/06/01 06:34:16;;;;;;;1.73;0.60;;;15.70;99.90;;;-146.41;100.00;57768.22;5012080;28;20462;-70
2022/06/01 06:36:44;;;;;;;1.85;0.80;;;16.00;99.90;;;-146.41;100.00;57768.22;5013935;28;20084;-72
2022/06/01 06:39:13;;;;;;;2.03;0.60;;;16.30;99.90;;;-146.41;100.00;57768.22;5011242;28;20100;-70
2022/06/01 06:41:40;;;;;;;2.13;0.47;;;16.40;99.90;;;-146.41;100.00;57768.22;5000347;28;20506;-70
2022/06/01 06:44:07;;;;;;;0.93;0.40;;;16.40;99.90;;;-146.41;100.00;57768.22;5013286;28;20135;-70
2022/06/01 06:46:34;;;;;;;1.33;0.52;;;16.30;99.90;;;-146.41;100.00;57768.22;5009655;28;20139;-71
2022/06/01 06:49:01;;;;;;;1.13;0.40;;;16.40;99.90;;;-146.41;100.00;57768.22;5015120;28;20068;-71
2022/06/01 06:51:34;;;;;;;1.77;0.52;;;16.40;98.90;;;-146.41;100.00;57768.22;5013676;28;20152;-71
2022/06/01 06:54:01;;;;;;;2.75;0.50;;;16.30;99.50;;;-146.41;100.00;57768.22;5013925;28;20524;-72
2022/06/01 06:56:29;;;;;;;1.73;0.50;;;16.20;98.50;;;-146.41;100.00;57768.22;5011905;28;20480;-71
2022/06/01 06:58:56;;;;;;;3.38;0.40;;;16.50;99.00;;;-146.41;100.00;57768.22;5002786;28;20073;-71
2022/06/01 07:01:24;;;;;;;0.88;0.40;;;16.70;98.80;;;-146.41;100.00;57768.22;5010547;28;20054;-73
2022/06/01 07:03:52;;;;;;;2.00;0.40;;;16.70;98.10;;;-146.41;100.00;57768.22;5007906;28;20558;-71
2022/06/01 07:06:24;;;;;;;0.73;0.45;;;16.70;98.30;;;-146.41;100.00;57768.22;5009451;28;20123;-71
2022/06/01 07:08:54;;;;;;;2.33;0.40;;;16.70;97.60;;;-146.41;100.00;57768.22;5006624;28;20105;-73
2022/06/01 07:11:28;;;;;;;0.85;0.40;;;16.70;96.10;;;-146.41;100.00;57768.22;5012838;28;20069;-71
2022/06/01 07:13:58;;;;;;;1.83;0.50;;;16.70;96.80;;;-146.41;100.00;57768.22;5018476;28;20897;-71
2022/06/01 07:16:32;;;;;;;1.20;0.35;;;16.60;96.60;;;-146.41;100.00;57768.22;5015566;28;20511;-70
2022/06/01 07:19:02;;;;;;;0.82;0.40;;;16.60;95.80;;;-146.41;100.00;57768.22;5014040;28;20046;-70
2022/06/01 07:21:36;;;;;;;1.33;0.50;;;16.70;96.20;;;-146.41;100.00;57768.22;5018436;28;20136;-72
2022/06/01 07:24:05;;;;;;;3.60;0.47;;;16.70;96.80;;;-146.41;100.00;57768.22;5013436;28;20056;-71
2022/06/01 07:26:40;;;;;;;1.63;0.63;;;16.90;96.90;;;-146.41;100.00;57768.22;5016775;28;20118;-71
2022/06/01 07:29:08;;;;;;;2.00;0.40;;;17.10;97.00;;;-146.41;100.00;57768.22;5013592;28;20058;-70
2022/06/01 07:31:35;;;;;;;3.95;0.50;;;17.10;96.50;;;-146.41;100.00;57768.22;5012148;28;20454;-70
2022/06/01 07:34:03;;;;;;;3.00;0.43;;;17.00;96.50;;;-146.41;100.00;57768.22;5016403;28;20064;-70
2022/06/01 07:36:31;;;;;;;2.30;0.50;;;17.00;97.10;;;-146.41;100.00;57768.22;5014787;28;20144;-70
2022/06/01 07:44:39;;;;;;;4.00;0.60;;;17.50;96.50;;;-146.41;100.00;57768.22;5014773;28;20417;-69
2022/06/01 07:47:08;;;;;;;1.20;0.45;;;17.30;96.50;;;-146.41;100.00;57768.22;5013932;28;20053;-69
2022/06/01 07:49:56;;;;;;;1.40;0.50;;;17.20;97.60;;;-146.41;100.00;57768.22;5013419;28;20398;-72
2022/06/01 07:52:43;;;;;;;2.88;0.50;;;17.30;97.20;;;-146.41;100.00;57768.22;5016122;28;20060;-71
2022/06/01 07:55:10;;;;;;;2.67;0.60;;;17.30;97.60;;;-146.41;100.00;57768.22;5012310;28;20133;-70
2022/06/01 07:57:37;;;;;;;2.17;0.55;;;17.40;97.80;;;-146.41;100.00;57768.22;4998455;28;20092;-71
2022/06/01 08:00:05;;;;;;;1.35;0.55;;;17.40;97.40;;;-146.41;100.00;57768.22;5013411;28;20136;-71
2022/06/01 08:02:32;;;;;;;2.60;0.60;;;17.60;97.30;;;-146.41;100.00;57768.22;5015353;28;20072;-69
2022/06/01 08:04:59;;;;;;;4.00;0.90;;;17.80;96.90;;;-146.41;100.00;57768.22;5016570;28;20129;-70
2022/06/01 08:07:26;;;;;;;4.72;0.80;;;17.70;97.20;;;-146.41;100.00;57768.22;5009663;28;20084;-71
2022/06/01 08:09:53;;;;;;;3.00;0.60;;;17.60;97.30;;;-146.41;100.00;57768.22;5015180;28;20064;-73
2022/06/01 08:15:06;;;;;;;2.28;0.50;;;18.00;98.20;;;-146.41;100.00;57768.22;5013412;28;20045;-71
2022/06/01 08:17:36;;;;;;;2.97;0.60;;;18.10;97.00;;;-146.41;100.00;57768.22;5012111;28;20562;-71
2022/06/01 08:20:04;;;;;;;2.70;0.60;;;18.10;97.10;;;-146.41;100.00;57768.22;5012246;28;20161;-70
2022/06/01 08:22:31;;;;;;;3.40;0.50;;;18.10;96.60;;;-146.41;100.00;57768.22;5014902;28;20060;-71
2022/06/01 08:24:58;;;;;;;2.78;0.52;;;17.90;95.90;;;-146.41;100.00;57768.22;5017902;28;20104;-70
2022/06/01 08:27:24;;;;;;;2.25;0.60;;;17.70;96.00;;;-146.41;100.00;57768.22;5014196;28;20474;-71
2022/06/01 08:29:51;;;;;;;2.15;0.52;;;17.80;96.40;;;-146.41;100.00;57768.22;5017245;28;20158;-73
2022/06/01 08:32:18;;;;;;;4.00;0.50;;;18.10;95.70;;;-146.41;100.00;57768.22;5011427;28;20134;-71
2022/06/01 08:34:45;;;;;;;1.48;0.50;;;18.20;95.70;;;-146.41;100.00;57768.22;5016478;28;20147;-73
2022/06/01 08:37:12;;;;;;;1.05;0.50;;;18.50;96.00;;;-146.41;100.00;57768.22;4999555;28;20436;-70
2022/06/01 08:39:39;;;;;;;4.03;0.70;;;18.60;94.90;;;-146.41;100.00;57768.22;5009180;28;20345;-71
2022/06/01 08:42:12;;;;;;;2.10;0.40;;;18.40;94.10;;;-146.41;100.00;57768.22;5017319;28;20148;-71
2022/06/01 08:44:42;;;;;;;1.40;0.40;;;18.40;94.70;;;-146.41;100.00;57768.22;4991886;28;20460;-68
2022/06/01 08:47:27;;;;;;;3.28;0.57;;;18.40;95.00;;;-146.41;100.00;57768.22;4990638;28;20083;-71
2022/06/01 08:50:01;;;;;;;3.65;0.60;;;18.40;94.70;;;-146.41;100.00;57768.22;4984636;28;20060;-71
2022/06/01 08:52:29;;;;;;;1.48;0.40;;;18.50;94.00;;;-146.41;100.00;57768.22;5012859;28;20092;-72
2022/06/01 08:54:56;;;;;;;1.35;0.40;;;18.60;94.70;;;-146.41;100.00;57768.22;5012980;28;20457;-72
2022/06/01 08:57:30;;;;;;;0.95;0.30;;;18.70;94.60;;;-146.41;100.00;57768.22;5015207;28;20105;-70
2022/06/01 09:00:11;;;;;;;0.75;0.30;;;19.10;94.40;;;-146.41;100.00;57768.22;4995389;28;20058;-72
2022/06/01 09:03:19;;;;;;;2.55;0.40;;;19.60;94.30;;;-146.41;100.00;57768.22;4991754;28;20046;-72
2022/06/01 09:06:00;;;;;;;2.55;0.63;;;19.90;93.20;;;-146.41;100.00;57768.22;5010638;28;20083;-71
2022/06/01 09:08:50;;;;;;;1.65;0.40;;;20.00;93.40;;;-146.41;100.00;57768.22;4995778;28;20177;-70
2022/06/01 09:11:28;;;;;;;1.92;0.43;;;19.90;92.70;;;-146.41;100.00;57768.22;4991336;28;20540;-72
2022/06/01 09:14:14;;;;;;;2.75;0.70;;;20.00;92.80;;;-146.41;100.00;57768.22;4991306;28;20046;-71
2022/06/01 09:16:48;;;;;;;3.58;0.57;;;20.30;93.10;;;-146.41;100.00;57768.22;5011854;28;20081;-71
2022/06/01 09:22:37;;;;;;;1.83;0.43;;;20.40;91.90;;;-146.41;100.00;57768.22;5008894;28;20054;-70
2022/06/01 09:25:26;;;;;;;3.50;0.60;;;20.50;92.50;;;-146.41;100.00;57768.22;5013456;28;20760;-72
2022/06/01 09:27:59;;;;;;;1.85;0.50;;;20.60;91.40;;;-146.41;100.00;57768.22;5000208;28;20448;-72
2022/06/01 09:30:40;;;;;;;1.77;0.50;;;20.60;90.80;;;-146.41;100.00;57768.22;5016480;28;20050;-70
2022/06/01 09:33:33;;;;;;;1.52;0.50;;;20.70;91.00;;;-146.41;100.00;57768.22;5008146;28;20084;-71
2022/06/01 09:36:08;;;;;;;0.98;0.40;;;20.60;90.40;;;-146.41;100.00;57768.22;5013023;28;20071;-71
2022/06/01 09:38:48;;;;;;;2.20;0.40;;;20.60;90.60;;;-146.41;100.00;57768.22;5014821;28;20054;-71
2022/06/01 09:41:31;;;;;;;2.60;0.50;;;20.70;90.70;;;-146.41;100.00;57768.22;5014804;28;20050;-71
2022/06/01 09:44:10;;;;;;;2.55;1.15;;;20.90;90.40;;;-146.41;100.00;57768.22;5012739;28;20057;-72
2022/06/01 09:46:40;;;;;;;4.25;0.60;;;21.20;90.40;;;-146.41;100.00;57768.22;5018241;28;20169;-72
2022/06/01 09:49:32;;;;;;;5.22;0.65;;;21.20;90.80;;;-146.41;100.00;57768.22;5004556;28;20050;-72
2022/06/01 09:52:08;;;;;;;;;;;21.30;90.10;;;-146.41;100.00;57768.22;4998702;28;20089;-71
2022/06/01 09:54:42;;;;;;;2.08;0.60;;;21.10;89.10;;;-146.41;100.00;57768.22;5011991;28;19969;-70
2022/06/01 09:57:27;;;;;;;1.92;0.40;;;20.90;90.40;;;-146.41;100.00;57768.22;5012326;28;20531;-71
2022/06/01 10:06:05;;;;;;;3.03;0.50;;;21.60;88.20;;;-146.41;100.00;57768.22;5011840;28;20080;-71
2022/06/01 10:06:26;;;;;;;1.85;0.50;;;21.50;87.40;;;-146.41;100.00;57768.22;5005998;28;20388;-70
2022/06/01 10:09:11;;;;;;;2.10;0.60;;;21.30;87.40;;;-146.41;100.00;57768.22;4996696;28;20099;-72
2022/06/01 10:11:44;;;;;;;2.42;0.50;;;21.30;89.50;;;-146.41;100.00;57768.22;4979992;28;20045;-73
2022/06/01 10:14:18;;;;;;;5.78;0.70;;;21.20;89.00;;;-146.41;100.00;57768.22;4994005;28;20081;-70
2022/06/01 10:17:11;;;;;;;1.83;0.70;;;21.10;86.30;;;-146.41;100.00;57768.22;5014375;28;20041;-70
2022/06/01 10:20:21;;;;;;;3.75;0.80;;;20.90;86.00;;;-146.41;100.00;57768.22;5005066;28;20041;-71
2022/06/01 10:23:12;;;;;;;6.40;0.68;;;20.90;86.70;;;-146.41;100.00;57768.22;5009533;28;20085;-70
2022/06/01 10:25:56;;;;;;;1.45;0.50;;;20.90;87.30;;;-146.41;100.00;57768.22;4992483;28;20046;-71
2022/06/01 10:28:29;;;;;;;2.45;0.80;;;21.00;87.80;;;-146.41;100.00;57768.22;4990769;28;20132;-70
2022/06/01 10:31:20;;;;;;;2.67;0.68;;;21.30;86.50;;;-146.41;100.00;57768.22;5013580;28;20099;-70
2022/06/01 10:33:56;;;;;;;4.35;0.90;;;21.60;87.20;;;-146.41;100.00;57768.22;5012574;28;20053;-72
2022/06/01 10:37:19;;;;;;;4.32;0.60;;;21.40;86.20;;;-146.41;100.00;57768.22;5011265;28;20053;-70
2022/06/01 10:40:07;;;;;;;3.58;0.68;;;21.80;88.20;;;-146.41;100.00;57768.22;4907254;29;20115;-71
2022/06/01 10:45:37;;;;;;;3.25;0.70;;;22.10;86.00;;;-146.41;100.00;57768.22;5012897;28;20056;-70